Time;durP1;ratioP1;P1;durP2;ratioP2;P2;SDS_P1;SDS_P2;PMS_P1;PMS_P2;Temp;Humidity;BMP_temperature;BMP_pressure;BME280_temperature;BME280_humidity;BME280_pressure;Samples;Min_cycle;Max_cycle;Signal;HPM_P1;HPM_P2
2021/04/26 00:01:04;;;;;;;15.88;9.35;;;;;;;8.90;61.27;100593.16;6257833;22;20011;-75
2021/04/26 00:03:29;;;;;;;17.17;9.43;;;;;;;8.85;61.45;100590.41;6309283;22;20007;-75
2021/04/26 00:05:55;;;;;;;17.80;9.88;;;;;;;8.77;61.62;100589.03;6309573;22;20007;-75
2021/04/26 00:08:20;;;;;;;17.13;9.70;;;;;;;8.83;61.43;100593.47;6310663;22;20432;-75
2021/04/26 00:10:46;;;;;;;15.68;9.80;;;;;;;8.74;61.80;100592.34;6258854;22;20003;-75
2021/04/26 00:13:11;;;;;;;14.25;9.20;;;;;;;8.71;62.16;100585.44;6310729;22;20003;-75
2021/04/26 00:15:37;;;;;;;20.20;10.18;;;;;;;8.82;61.78;100590.97;6283955;22;20007;-75
2021/04/26 00:18:02;;;;;;;15.32;9.20;;;;;;;8.83;61.84;100584.31;6283840;22;20010;-75
2021/04/26 00:20:30;;;;;;;17.15;9.70;;;;;;;8.85;61.89;100590.41;6308866;22;20387;-75
2021/04/26 00:22:55;;;;;;;19.90;10.07;;;;;;;8.78;62.67;100578.81;6284179;22;19999;-76
2021/04/26 00:25:21;;;;;;;16.00;9.90;;;;;;;8.68;62.91;100579.63;6283752;22;20065;-75
2021/04/26 00:27:47;;;;;;;17.55;10.48;;;;;;;8.62;63.52;100578.00;6283475;22;20007;-75
2021/04/26 00:30:14;;;;;;;21.00;11.13;;;;;;;8.62;64.01;100575.22;6309764;22;20010;-75
2021/04/26 00:32:40;;;;;;;17.52;11.13;;;;;;;8.55;64.08;100575.50;6283404;22;20003;-75
2021/04/26 00:35:06;;;;;;;20.75;10.40;;;;;;;8.54;64.31;100573.00;6283804;22;20060;-75
2021/04/26 00:37:32;;;;;;;18.20;10.73;;;;;;;8.44;64.48;100571.94;6257918;22;20000;-76
2021/04/26 00:39:57;;;;;;;17.48;10.95;;;;;;;8.34;64.99;100563.59;6282358;22;20010;-76
2021/04/26 00:42:23;;;;;;;19.00;11.05;;;;;;;8.26;65.29;100556.69;6283838;22;20018;-75
2021/04/26 00:44:48;;;;;;;18.55;10.88;;;;;;;8.13;65.65;100561.94;6309401;22;20011;-75
2021/04/26 00:47:14;;;;;;;21.17;11.50;;;;;;;8.22;65.39;100558.34;6283284;22;20003;-75
2021/04/26 00:49:39;;;;;;;20.67;11.60;;;;;;;8.15;65.38;100555.03;6309706;22;20007;-75
2021/04/26 00:52:05;;;;;;;17.40;11.18;;;;;;;8.07;66.01;100561.94;6282924;22;20007;-75
2021/04/26 00:54:30;;;;;;;17.02;10.65;;;;;;;8.04;66.00;100553.34;6309479;22;20003;-75
2021/04/26 00:56:56;;;;;;;23.23;11.75;;;;;;;8.02;66.25;100552.78;6309192;22;20057;-75
2021/04/26 00:59:21;;;;;;;22.63;11.75;;;;;;;7.85;66.73;100547.53;6283189;22;20007;-75
2021/04/26 01:01:47;;;;;;;21.27;10.63;;;;;;;7.96;66.29;100545.59;6283246;22;20030;-74
2021/04/26 01:04:12;;;;;;;23.73;12.10;;;;;;;7.88;66.44;100540.63;6257534;22;20007;-75
2021/04/26 01:06:38;;;;;;;20.58;11.73;;;;;;;7.80;66.91;100539.22;6257727;22;20007;-75
2021/04/26 01:09:04;;;;;;;23.42;11.90;;;;;;;7.74;67.06;100532.03;6257609;22;20007;-75
2021/04/26 01:11:55;;;;;;;24.58;11.48;;;;;;;7.74;67.07;100527.34;6283066;22;20007;-75
2021/04/26 01:14:30;;;;;;;24.55;12.13;;;;;;;7.69;67.28;100523.72;6283088;22;20042;-75
2021/04/26 01:17:22;;;;;;;21.88;11.77;;;;;;;7.63;67.49;100530.38;6308929;22;20063;-75
2021/04/26 01:20:10;;;;;;;21.85;11.75;;;;;;;7.62;67.36;100532.31;6283198;22;20069;-75
2021/04/26 01:22:58;;;;;;;21.48;11.77;;;;;;;7.60;67.48;100527.06;6256727;22;20014;-75
2021/04/26 01:25:24;;;;;;;22.17;11.45;;;;;;;7.45;67.79;100529.78;6309099;22;20021;-75
2021/04/26 01:28:16;;;;;;;20.35;11.45;;;;;;;7.45;67.81;100520.66;6257591;22;20363;-74
2021/04/26 01:30:48;;;;;;;21.10;11.45;;;;;;;7.52;68.04;100523.97;6283065;22;20003;-75
2021/04/26 01:33:31;;;;;;;21.17;11.60;;;;;;;7.45;68.34;100515.97;6309241;22;20010;-75
2021/04/26 01:36:02;;;;;;;18.27;11.67;;;;;;;7.53;67.94;100515.44;6283233;22;20003;-75
2021/04/26 01:38:31;;;;;;;20.65;11.35;;;;;;;7.46;68.12;100511.28;6257600;22;20303;-75
2021/04/26 01:40:57;;;;;;;22.50;11.85;;;;;;;7.36;68.52;100515.69;6308047;22;20018;-75
2021/04/26 01:43:24;;;;;;;19.90;11.35;;;;;;;7.35;68.66;100516.78;6308637;22;20037;-75
2021/04/26 01:45:51;;;;;;;20.13;11.13;;;;;;;7.30;68.80;100514.00;6282759;22;20011;-75
2021/04/26 01:48:18;;;;;;;23.25;11.50;;;;;;;7.32;68.76;100502.66;6309365;22;20138;-75
2021/04/26 01:50:43;;;;;;;18.45;11.23;;;;;;;7.30;68.95;100507.63;6282247;22;20039;-75
2021/04/26 01:53:09;;;;;;;22.10;11.23;;;;;;;7.32;68.73;100502.66;6308925;22;19999;-74
2021/04/26 01:55:35;;;;;;;21.63;12.10;;;;;;;7.10;69.54;100506.50;6308765;22;20003;-75
2021/04/26 01:58:00;;;;;;;22.98;11.90;;;;;;;7.15;69.23;100502.91;6308527;22;20035;-75
2021/04/26 02:00:30;;;;;;;22.42;12.23;;;;;;;7.12;69.39;100495.16;6283121;22;20003;-75
2021/04/26 02:02:56;;;;;;;22.30;11.68;;;;;;;7.02;69.76;100493.22;6232662;22;20031;-75
2021/04/26 02:05:21;;;;;;;22.95;11.48;;;;;;;7.11;69.54;100496.28;6256765;22;20022;-75
2021/04/26 02:07:48;;;;;;;22.67;12.18;;;;;;;7.05;69.64;100495.44;6309184;22;20010;-75
2021/04/26 02:10:13;;;;;;;23.80;12.13;;;;;;;6.90;70.17;100493.41;6308256;22;20007;-75
2021/04/26 02:12:39;;;;;;;21.67;12.15;;;;;;;6.96;70.14;100493.44;6308925;22;20010;-76
2021/04/26 02:15:10;;;;;;;24.45;12.13;;;;;;;6.92;70.16;100496.75;6283200;22;20306;-76
2021/04/26 02:17:35;;;;;;;26.70;12.70;;;;;;;6.86;70.53;100499.78;6282891;22;20046;-75
2021/04/26 02:20:01;;;;;;;26.63;12.10;;;;;;;6.86;70.37;100494.25;6283052;22;20442;-75
2021/04/26 02:22:26;;;;;;;21.90;12.30;;;;;;;6.81;70.65;100491.47;6282600;22;20082;-75
2021/04/26 02:24:52;;;;;;;24.85;12.05;;;;;;;6.90;70.36;100498.13;6308615;22;20033;-75
2021/04/26 02:27:17;;;;;;;22.02;11.88;;;;;;;6.79;70.78;100501.94;6309120;22;20014;-75
2021/04/26 02:29:43;;;;;;;22.13;11.02;;;;;;;6.80;70.58;100492.53;6257408;22;20316;-75
2021/04/26 02:32:12;;;;;;;19.33;11.60;;;;;;;6.82;70.52;100488.41;6283248;22;20007;-75
2021/04/26 02:34:44;;;;;;;22.27;12.70;;;;;;;6.75;70.91;100498.88;6260038;22;20003;-75
2021/04/26 02:37:34;;;;;;;17.57;11.30;;;;;;;6.80;70.67;100487.88;6284600;22;20003;-75
2021/04/26 02:40:06;;;;;;;18.58;11.48;;;;;;;6.74;70.97;100494.44;6269322;22;20428;-76
2021/04/26 02:42:37;;;;;;;18.60;11.95;;;;;;;6.66;71.37;100486.72;6312368;22;20038;-75
2021/04/26 02:45:03;;;;;;;25.50;12.63;;;;;;;6.51;71.82;100486.63;6312041;22;20010;-75
2021/04/26 02:47:28;;;;;;;19.80;11.80;;;;;;;6.48;72.17;100491.56;6285120;22;20003;-76
2021/04/26 02:49:54;;;;;;;21.02;11.70;;;;;;;6.48;72.08;100490.75;6285111;22;20003;-76
2021/04/26 02:52:20;;;;;;;22.65;11.98;;;;;;;6.64;72.05;100481.44;6284232;22;20066;-76
2021/04/26 02:54:45;;;;;;;24.92;12.57;;;;;;;6.56;71.89;100478.38;6285048;22;20030;-76
2021/04/26 02:57:11;;;;;;;22.65;12.40;;;;;;;6.37;72.54;100473.28;6284543;22;20034;-76
2021/04/26 02:59:37;;;;;;;21.05;12.15;;;;;;;6.38;72.75;100471.38;6259931;22;20007;-76
2021/04/26 03:02:03;;;;;;;26.20;12.48;;;;;;;6.37;72.73;100470.53;6259332;22;20363;-76
2021/04/26 03:04:29;;;;;;;24.50;12.43;;;;;;;6.40;72.72;100470.00;6259154;22;20011;-77
2021/04/26 03:06:55;;;;;;;22.02;13.20;;;;;;;6.31;72.91;100471.59;6259747;22;20002;-76
2021/04/26 03:09:21;;;;;;;21.58;12.15;;;;;;;6.38;72.46;100460.31;6285175;22;20413;-76
2021/04/26 03:11:46;;;;;;;22.95;11.73;;;;;;;6.44;72.36;100460.09;6259339;22;20014;-76
2021/04/26 03:14:12;;;;;;;26.83;13.00;;;;;;;6.44;72.26;100454.59;6234864;22;19999;-76
2021/04/26 03:16:38;;;;;;;21.73;11.73;;;;;;;6.39;72.26;100446.28;6259072;22;20003;-76
2021/04/26 03:19:05;;;;;;;22.25;12.10;;;;;;;6.41;72.43;100455.13;6284712;22;20007;-76
2021/04/26 03:21:31;;;;;;;23.63;13.07;;;;;;;6.40;72.50;100447.09;6259210;22;20475;-76
2021/04/26 03:23:56;;;;;;;21.10;12.10;;;;;;;6.31;72.68;100444.03;6284424;22;20030;-76
2021/04/26 03:26:22;;;;;;;20.30;11.50;;;;;;;6.42;72.68;100444.91;6284540;22;20676;-75
2021/04/26 03:28:47;;;;;;;23.60;12.52;;;;;;;6.41;72.39;100441.34;6259003;22;20011;-75
2021/04/26 03:31:13;;;;;;;24.20;12.65;;;;;;;6.48;72.38;100438.31;6258547;22;20076;-76
2021/04/26 03:33:38;;;;;;;20.15;12.55;;;;;;;6.35;72.87;100445.16;6284958;22;20447;-76
2021/04/26 03:36:05;;;;;;;21.30;12.98;;;;;;;6.28;73.12;100435.47;6258202;22;20003;-76
2021/04/26 03:38:30;;;;;;;20.40;12.15;;;;;;;6.33;73.03;100441.03;6284801;22;20003;-75
2021/04/26 03:40:58;;;;;;;21.13;12.27;;;;;;;6.21;73.39;100438.44;6258267;22;20423;-76
2021/04/26 03:43:23;;;;;;;22.30;13.00;;;;;;;6.34;73.10;100437.16;6258512;22;20011;-76
2021/04/26 03:45:49;;;;;;;22.60;12.45;;;;;;;6.33;73.36;100438.25;6258125;22;20015;-75
2021/04/26 03:48:15;;;;;;;24.67;12.70;;;;;;;6.21;73.80;100438.44;6284554;22;20003;-75
2021/04/26 03:50:40;;;;;;;21.40;13.07;;;;;;;6.01;74.43;100428.94;6232866;22;20003;-76
2021/04/26 03:53:06;;;;;;;21.23;12.88;;;;;;;5.98;74.70;100429.47;6258814;22;20316;-75
2021/04/26 03:55:31;;;;;;;21.92;13.80;;;;;;;5.92;75.00;100429.69;6258788;22;20022;-75
2021/04/26 03:57:57;;;;;;;27.38;13.20;;;;;;;5.93;75.13;100423.06;6258694;22;20029;-75
2021/04/26 04:00:23;;;;;;;22.80;13.80;;;;;;;5.83;75.74;100424.69;6233502;22;20003;-75
2021/04/26 04:02:48;;;;;;;23.20;13.70;;;;;;;5.79;75.79;100419.94;6309289;22;20065;-75
2021/04/26 04:05:14;;;;;;;28.90;14.18;;;;;;;5.81;75.80;100431.53;6283558;22;20003;-75
2021/04/26 04:07:39;;;;;;;22.42;14.18;;;;;;;5.74;76.17;100426.28;6284248;22;20011;-75
2021/04/26 04:10:07;;;;;;;28.63;14.50;;;;;;;5.76;76.08;100426.00;6258039;22;20033;-75
2021/04/26 04:12:33;;;;;;;24.52;13.63;;;;;;;5.79;75.84;100418.03;6259067;22;20003;-75
2021/04/26 04:14:59;;;;;;;24.40;13.60;;;;;;;5.87;75.55;100427.72;6284430;22;20416;-75
2021/04/26 04:17:24;;;;;;;24.52;14.30;;;;;;;5.86;75.82;100431.59;6258592;22;20485;-75
2021/04/26 04:19:50;;;;;;;24.38;14.30;;;;;;;5.74;76.22;100431.78;6258988;22;20027;-75
2021/04/26 04:22:16;;;;;;;28.63;13.55;;;;;;;5.71;76.35;100424.03;6257608;22;20012;-79
2021/04/26 04:24:41;;;;;;;29.02;14.00;;;;;;;5.80;76.28;100432.66;6283998;22;20014;-75
2021/04/26 04:27:07;;;;;;;28.48;14.18;;;;;;;5.75;76.45;100419.66;6258309;22;20004;-75
2021/04/26 04:29:32;;;;;;;26.98;14.15;;;;;;;5.71;76.14;100420.44;6257940;22;20003;-75
2021/04/26 04:31:58;;;;;;;25.77;14.32;;;;;;;5.73;76.35;100413.56;6284113;22;20007;-75
2021/04/26 04:34:23;;;;;;;24.92;14.00;;;;;;;5.78;76.26;100421.06;6283811;22;20004;-75
2021/04/26 04:36:48;;;;;;;24.95;14.38;;;;;;;5.58;76.80;100421.72;6283485;22;20007;-75
2021/04/26 04:39:14;;;;;;;24.80;14.13;;;;;;;5.67;76.56;100424.81;6257705;22;20011;-75
2021/04/26 04:41:39;;;;;;;25.90;14.93;;;;;;;5.56;76.83;100427.50;6257913;22;20081;-76
2021/04/26 04:44:05;;;;;;;34.35;15.77;;;;;;;5.50;77.41;100428.53;6283232;22;20624;-76
2021/04/26 04:46:31;;;;;;;24.88;14.77;;;;;;;5.50;77.37;100434.06;6258380;22;20207;-76
2021/04/26 04:48:56;;;;;;;30.23;15.02;;;;;;;5.50;77.25;100428.53;6283458;22;20007;-76
2021/04/26 04:51:22;;;;;;;24.50;14.20;;;;;;;5.43;77.57;100433.44;6257547;22;20543;-75
2021/04/26 04:53:48;;;;;;;28.95;14.80;;;;;;;5.40;77.78;100428.44;6309651;22;20005;-75
2021/04/26 04:56:13;;;;;;;31.38;14.15;;;;;;;5.38;77.89;100425.16;6282901;22;20003;-75
2021/04/26 04:58:39;;;;;;;26.02;14.85;;;;;;;5.21;78.52;100424.41;6233269;22;20007;-76
2021/04/26 05:01:05;;;;;;;26.45;15.02;;;;;;;5.18;78.57;100424.94;6232451;22;20007;-76
2021/04/26 05:03:30;;;;;;;29.00;14.85;;;;;;;5.20;78.41;100433.78;6283296;22;20004;-75
2021/04/26 05:05:56;;;;;;;27.63;15.98;;;;;;;5.10;78.88;100432.59;6258142;22;20010;-76
2021/04/26 05:08:21;;;;;;;27.05;15.70;;;;;;;5.14;78.81;100419.94;6257700;22;20007;-75
2021/04/26 05:10:47;;;;;;;27.08;15.13;;;;;;;5.19;78.54;100426.63;6257807;22;19999;-75
2021/04/26 05:13:12;;;;;;;24.13;14.48;;;;;;;5.19;78.57;100432.94;6233053;22;19999;-75
2021/04/26 05:15:38;;;;;;;24.05;14.32;;;;;;;5.27;78.33;100435.22;6257500;22;20007;-75
2021/04/26 05:18:04;;;;;;;25.23;14.63;;;;;;;5.30;77.84;100428.38;6283792;22;20382;-73
2021/04/26 05:20:29;;;;;;;31.17;14.73;;;;;;;5.34;77.71;100429.50;6257464;22;20011;-73
2021/04/26 05:22:55;;;;;;;25.77;14.32;;;;;;;5.34;77.70;100435.00;6257277;22;20056;-74
2021/04/26 05:25:21;;;;;;;26.00;14.18;;;;;;;5.41;77.04;100432.88;6284002;22;20052;-73
2021/04/26 05:27:46;;;;;;;28.23;14.15;;;;;;;5.49;76.91;100437.91;6257419;22;20003;-73
2021/04/26 05:30:12;;;;;;;33.10;14.63;;;;;;;5.51;76.90;100437.63;6283598;22;20413;-73
2021/04/26 05:32:38;;;;;;;25.40;15.15;;;;;;;5.46;77.20;100438.44;6257886;22;20008;-74
2021/04/26 05:35:04;;;;;;;26.50;14.93;;;;;;;5.49;76.99;100443.41;6257343;22;20007;-73
2021/04/26 05:37:29;;;;;;;28.00;14.68;;;;;;;5.41;77.02;100449.41;6257438;22;20003;-72
2021/04/26 05:39:55;;;;;;;26.52;14.32;;;;;;;5.46;77.11;100454.97;6256412;22;20086;-72
2021/04/26 05:42:20;;;;;;;25.75;14.38;;;;;;;5.44;76.91;100451.63;6257369;22;20037;-73
2021/04/26 05:44:46;;;;;;;29.15;14.82;;;;;;;5.34;77.26;100454.28;6283164;22;20014;-73
2021/04/26 05:47:11;;;;;;;28.13;14.85;;;;;;;5.41;77.02;100460.41;6282635;22;20394;-73
2021/04/26 05:49:37;;;;;;;31.08;15.50;;;;;;;5.26;77.51;100458.31;6282945;22;20015;-73
2021/04/26 05:52:03;;;;;;;26.00;14.80;;;;;;;5.28;77.43;100463.59;6231978;22;20011;-73
2021/04/26 05:54:28;;;;;;;30.58;15.40;;;;;;;5.25;77.65;100464.13;6232100;22;20053;-72
2021/04/26 05:56:54;;;;;;;23.05;14.13;;;;;;;5.28;77.33;100455.34;6283251;22;20011;-74
2021/04/26 05:59:19;;;;;;;29.98;14.90;;;;;;;5.32;77.32;100459.22;6308714;22;20350;-72
2021/04/26 06:01:45;;;;;;;26.95;14.80;;;;;;;5.21;77.51;100460.19;6256943;22;20008;-72
2021/04/26 06:04:10;;;;;;;24.50;14.95;;;;;;;5.15;78.11;100462.06;6232748;22;20436;-72
2021/04/26 06:06:36;;;;;;;29.30;15.75;;;;;;;5.31;77.36;100457.56;6256180;22;20046;-73
2021/04/26 06:09:01;;;;;;;26.45;15.23;;;;;;;5.25;77.45;100458.59;6259122;22;20417;-73
2021/04/26 06:11:27;;;;;;;29.45;16.27;;;;;;;5.13;77.51;100451.34;6284941;22;20007;-73
2021/04/26 06:13:52;;;;;;;26.30;15.95;;;;;;;5.08;78.07;100448.53;6284809;22;20057;-74
2021/04/26 06:16:18;;;;;;;28.25;15.05;;;;;;;5.09;78.16;100452.94;6310948;22;20018;-73
2021/04/26 06:18:43;;;;;;;29.20;15.85;;;;;;;5.09;78.17;100452.94;6259251;22;20007;-75
2021/04/26 06:21:09;;;;;;;27.00;14.80;;;;;;;5.18;77.86;100452.47;6258496;22;20019;-77
2021/04/26 06:23:34;;;;;;;28.70;15.52;;;;;;;5.10;78.08;100457.38;6260350;22;20008;-77
2021/04/26 06:26:00;;;;;;;34.60;14.98;;;;;;;5.27;77.57;100448.19;6285621;22;20327;-77
2021/04/26 06:28:26;;;;;;;26.27;15.05;;;;;;;5.29;77.27;100451.47;6284888;22;20336;-73
2021/04/26 06:30:51;;;;;;;29.08;14.70;;;;;;;5.23;77.60;100444.25;6284740;22;20033;-76
2021/04/26 06:33:17;;;;;;;29.10;14.77;;;;;;;5.30;77.35;100444.91;6259753;22;20090;-76
2021/04/26 06:35:46;;;;;;;26.88;15.27;;;;;;;5.32;77.17;100442.69;6260704;22;20052;-76
2021/04/26 06:38:12;;;;;;;29.67;15.40;;;;;;;5.22;77.67;100439.84;6234711;22;20074;-77
2021/04/26 06:40:38;;;;;;;24.50;15.20;;;;;;;5.21;77.62;100440.94;6258517;22;20739;-75
2021/04/26 06:43:04;;;;;;;32.38;15.90;;;;;;;5.15;77.88;100443.66;6234121;22;20498;-76
2021/04/26 06:45:30;;;;;;;28.73;15.63;;;;;;;5.23;77.60;100441.50;6284090;22;20034;-75
2021/04/26 06:47:56;;;;;;;28.08;15.10;;;;;;;5.36;77.22;100435.59;6284847;22;20336;-76
2021/04/26 06:50:21;;;;;;;28.00;14.45;;;;;;;5.45;76.73;100436.75;6259103;22;20011;-75
2021/04/26 06:52:47;;;;;;;27.98;14.52;;;;;;;5.39;77.05;100429.53;6284373;22;20007;-75
2021/04/26 06:55:13;;;;;;;30.27;15.20;;;;;;;5.51;77.23;100429.38;6285341;22;20003;-75
2021/04/26 06:57:39;;;;;;;24.67;14.38;;;;;;;5.66;76.28;100428.69;6258646;22;20010;-75
2021/04/26 07:00:05;;;;;;;27.55;15.30;;;;;;;5.65;76.83;100429.75;6258909;22;20430;-75
2021/04/26 07:02:31;;;;;;;29.90;15.73;;;;;;;5.83;76.09;100426.59;6284489;22;20057;-76
2021/04/26 07:04:56;;;;;;;28.35;15.30;;;;;;;5.88;75.87;100425.78;6258683;22;19999;-75
2021/04/26 07:07:24;;;;;;;23.98;14.98;;;;;;;5.92;75.65;100435.22;6259192;22;20010;-75
2021/04/26 07:09:49;;;;;;;25.20;13.73;;;;;;;6.07;75.18;100440.00;6285032;22;20000;-75
2021/04/26 07:12:15;;;;;;;30.92;15.25;;;;;;;6.19;74.86;100437.91;6284594;22;20010;-76
2021/04/26 07:14:40;;;;;;;27.33;14.88;;;;;;;6.34;73.97;100432.47;6259059;22;20329;-76
2021/04/26 07:17:06;;;;;;;28.70;15.25;;;;;;;6.25;74.28;100434.91;6283940;22;20007;-76
2021/04/26 07:19:31;;;;;;;28.13;15.07;;;;;;;6.25;74.17;100436.81;6258001;22;20432;-76
2021/04/26 07:21:57;;;;;;;29.60;14.80;;;;;;;6.46;73.69;100426.72;6284353;22;20484;-76
2021/04/26 07:24:22;;;;;;;27.20;15.15;;;;;;;6.41;73.57;100437.75;6258542;22;20004;-76
2021/04/26 07:26:48;;;;;;;27.80;13.85;;;;;;;6.46;73.26;100421.19;6258782;22;20014;-76
2021/04/26 07:29:13;;;;;;;25.17;13.93;;;;;;;6.63;73.28;100435.66;6257958;22;20003;-77
2021/04/26 07:31:39;;;;;;;23.67;14.60;;;;;;;6.62;72.52;100422.94;6257079;22;20007;-76
2021/04/26 07:34:04;;;;;;;25.73;14.48;;;;;;;6.81;72.48;100433.50;6284415;22;19999;-76
2021/04/26 07:36:30;;;;;;;25.08;14.05;;;;;;;6.94;72.24;100424.72;6283598;22;20003;-77
2021/04/26 07:38:56;;;;;;;26.35;14.95;;;;;;;6.88;71.96;100428.53;6257310;22;20003;-76
2021/04/26 07:41:22;;;;;;;27.42;13.75;;;;;;;6.93;71.86;100417.50;6284468;22;20014;-76
2021/04/26 07:43:48;;;;;;;20.80;13.77;;;;;;;6.94;71.54;100414.50;6309615;22;20068;-76
2021/04/26 07:46:13;;;;;;;22.60;13.07;;;;;;;7.16;71.42;100411.50;6309694;22;20003;-76
2021/04/26 07:48:39;;;;;;;31.77;13.60;;;;;;;7.31;70.63;100410.69;6258841;22;20007;-75
2021/04/26 07:51:05;;;;;;;25.33;13.70;;;;;;;7.44;70.80;100406.56;6232552;22;20003;-76
2021/04/26 07:53:31;;;;;;;27.85;14.32;;;;;;;7.47;69.87;100417.06;6258340;22;20030;-76
2021/04/26 07:55:57;;;;;;;25.92;13.73;;;;;;;7.67;69.74;100409.88;6284238;22;20013;-76
2021/04/26 07:58:23;;;;;;;25.95;13.95;;;;;;;7.75;69.45;100412.91;6257656;22;20019;-76
2021/04/26 08:00:48;;;;;;;24.77;12.95;;;;;;;7.83;68.80;100409.56;6258669;22;20093;-76
2021/04/26 08:03:17;;;;;;;28.27;13.27;;;;;;;7.88;68.98;100405.97;6256565;22;20727;-76
2021/04/26 08:05:43;;;;;;;21.60;13.13;;;;;;;8.03;68.82;100410.66;6284253;22;20419;-76
2021/04/26 08:08:09;;;;;;;26.83;13.15;;;;;;;8.15;68.29;100415.88;6283764;22;20077;-75
2021/04/26 08:10:35;;;;;;;23.33;13.80;;;;;;;8.27;67.67;100416.38;6282891;22;20011;-76
2021/04/26 08:13:00;;;;;;;19.23;12.20;;;;;;;8.20;67.35;100415.88;6258441;22;20015;-76
2021/04/26 08:15:26;;;;;;;18.92;11.57;;;;;;;8.37;67.57;100418.31;6257972;22;20031;-76
2021/04/26 08:17:52;;;;;;;24.67;12.88;;;;;;;8.45;67.40;100406.69;6283510;22;20011;-76
2021/04/26 08:20:18;;;;;;;23.45;12.45;;;;;;;8.58;66.43;100408.00;6258313;22;20570;-77
2021/04/26 08:22:43;;;;;;;25.77;13.73;;;;;;;8.63;66.55;100403.28;6257082;22;20376;-77
2021/04/26 08:25:09;;;;;;;25.75;12.00;;;;;;;8.76;66.60;100399.06;6257848;22;20011;-77
2021/04/26 08:27:35;;;;;;;21.88;11.95;;;;;;;8.85;65.84;100402.06;6283922;22;20062;-76
2021/04/26 08:30:00;;;;;;;18.50;12.05;;;;;;;8.90;65.38;100400.09;6257349;22;20014;-77
2021/04/26 08:32:26;;;;;;;22.60;11.48;;;;;;;8.89;64.65;100401.22;6283509;22;20007;-77
2021/04/26 08:34:52;;;;;;;21.85;11.15;;;;;;;9.09;64.90;100402.22;6283304;22;20007;-77
2021/04/26 08:37:18;;;;;;;21.75;12.00;;;;;;;9.16;65.06;100397.16;6257202;22;20093;-76
2021/04/26 08:39:43;;;;;;;19.38;12.25;;;;;;;9.15;64.70;100390.81;6231949;22;20592;-77
2021/04/26 08:42:09;;;;;;;19.20;10.50;;;;;;;9.24;64.89;100404.06;6257353;22;20443;-77
2021/04/26 08:44:35;;;;;;;19.42;11.23;;;;;;;9.20;64.56;100392.72;6257925;22;20042;-77
2021/04/26 08:47:00;;;;;;;20.42;12.05;;;;;;;9.31;64.32;100399.03;6257817;22;20011;-77
2021/04/26 08:49:26;;;;;;;21.45;11.98;;;;;;;9.37;64.91;100398.69;6257791;22;20007;-77
2021/04/26 08:51:51;;;;;;;19.52;11.80;;;;;;;9.44;64.41;100392.81;6283197;22;20011;-77
2021/04/26 08:54:17;;;;;;;23.20;11.80;;;;;;;9.31;64.10;100394.31;6258293;22;20015;-77
2021/04/26 08:56:43;;;;;;;20.52;11.55;;;;;;;9.31;63.05;100390.72;6232230;22;20030;-77
2021/04/26 08:59:09;;;;;;;22.40;11.70;;;;;;;9.34;63.54;100387.38;6283437;22;20007;-77
2021/04/26 09:01:34;;;;;;;21.73;11.65;;;;;;;9.42;63.25;100385.91;6283655;22;20018;-77
2021/04/26 09:04:08;;;;;;;23.35;11.40;;;;;;;9.38;62.84;100372.63;6257522;22;20015;-77
2021/04/26 09:06:52;;;;;;;21.20;11.88;;;;;;;9.53;63.86;100366.13;6233280;22;20082;-77
2021/04/26 09:09:40;;;;;;;20.95;11.70;;;;;;;9.53;63.01;100371.69;6310978;22;20625;-77
2021/04/26 09:12:14;;;;;;;20.30;10.40;;;;;;;9.52;61.97;100361.69;6308953;22;20007;-77
2021/04/26 09:14:47;;;;;;;18.48;10.35;;;;;;;9.57;62.52;100369.16;6285328;22;19999;-77
2021/04/26 09:17:24;;;;;;;;;;;;;;;9.72;62.22;100365.41;6312317;22;20018;-77
2021/04/26 09:19:51;;;;;;;24.80;10.85;;;;;;;9.71;62.40;100359.03;6309452;22;20312;-76
2021/04/26 09:22:16;;;;;;;16.40;10.18;;;;;;;9.78;62.66;100355.94;6283277;22;20011;-76
2021/04/26 09:24:42;;;;;;;20.40;10.70;;;;;;;9.78;61.96;100355.94;6282908;22;20015;-77
2021/04/26 09:27:11;;;;;;;17.13;9.95;;;;;;;9.88;61.21;100355.00;6310266;22;20030;-77
2021/04/26 09:29:38;;;;;;;17.48;9.43;;;;;;;9.83;60.51;100358.63;6310484;22;20011;-77
2021/04/26 09:32:10;;;;;;;16.08;9.38;;;;;;;9.92;59.48;100359.66;6310181;22;20018;-77
2021/04/26 09:34:39;;;;;;;16.95;9.30;;;;;;;9.97;60.12;100356.00;6282442;22;20008;-77
2021/04/26 09:37:05;;;;;;;15.70;8.85;;;;;;;10.05;60.83;100350.63;6309482;22;20010;-76
2021/04/26 09:39:30;;;;;;;15.50;9.88;;;;;;;10.13;61.09;100353.88;6307770;22;20003;-77
2021/04/26 09:41:56;;;;;;;19.17;9.00;;;;;;;10.23;61.23;100353.78;6308932;22;20372;-77
2021/04/26 09:44:22;;;;;;;21.63;9.52;;;;;;;10.27;60.13;100347.34;6311536;22;20023;-77
2021/04/26 09:46:52;;;;;;;20.30;9.13;;;;;;;10.36;60.01;100344.75;6310846;22;20011;-77
2021/04/26 09:49:22;;;;;;;17.30;9.32;;;;;;;10.40;59.60;100351.38;6235061;22;20007;-77
2021/04/26 09:51:54;;;;;;;16.13;8.50;;;;;;;10.46;58.90;100341.03;6260764;22;20007;-76
2021/04/26 09:54:40;;;;;;;14.87;9.10;;;;;;;10.58;59.21;100343.38;6285143;22;20488;-76
2021/04/26 09:57:06;;;;;;;16.92;9.20;;;;;;;10.58;58.94;100340.59;6285798;22;20007;-77
2021/04/26 09:59:31;;;;;;;14.98;8.52;;;;;;;10.65;59.47;100339.09;6261444;22;20011;-76
2021/04/26 10:01:57;;;;;;;14.43;8.55;;;;;;;10.77;57.91;100341.44;6285332;22;20007;-77
2021/04/26 10:04:22;;;;;;;14.60;8.90;;;;;;;10.84;58.74;100339.13;6261372;22;20014;-77
2021/04/26 10:06:48;;;;;;;19.83;8.70;;;;;;;10.85;58.35;100340.75;6286257;22;20003;-77
2021/04/26 10:09:14;;;;;;;18.48;9.27;;;;;;;10.90;57.43;100340.69;6286628;22;20034;-77
2021/04/26 10:11:40;;;;;;;16.60;8.32;;;;;;;10.92;56.95;100335.66;6285956;22;20011;-77
2021/04/26 10:14:09;;;;;;;14.80;8.50;;;;;;;10.94;57.07;100335.34;6310779;22;20003;-77
2021/04/26 10:16:53;;;;;;;17.33;8.55;;;;;;;11.04;58.03;100334.38;6312031;22;20070;-77
2021/04/26 10:19:31;;;;;;;18.58;8.55;;;;;;;11.07;57.74;100336.56;6311798;22;20062;-77
2021/04/26 10:21:57;;;;;;;16.73;8.43;;;;;;;11.13;57.33;100332.56;6261801;22;20355;-77
2021/04/26 10:24:24;;;;;;;15.80;8.60;;;;;;;11.21;57.70;100334.66;6314640;22;20041;-77
2021/04/26 10:27:06;;;;;;;20.75;10.18;;;;;;;11.29;57.84;100331.19;6290446;22;20003;-78
2021/04/26 10:29:35;;;;;;;31.83;16.30;;;;;;;11.37;57.82;100329.69;6311183;22;20008;-79
2021/04/26 10:32:05;;;;;;;34.33;14.25;;;;;;;11.43;57.24;100316.53;6311057;22;20010;-80
2021/04/26 10:34:57;;;;;;;19.95;10.07;;;;;;;11.44;56.33;100326.50;6310667;22;20007;-73
2021/04/26 10:37:25;;;;;;;17.17;9.57;;;;;;;11.53;56.39;100316.31;6263186;22;20011;-74
2021/04/26 10:40:12;;;;;;;16.73;8.07;;;;;;;11.63;56.10;100313.38;6309558;22;20026;-73
2021/04/26 10:42:42;;;;;;;14.85;8.23;;;;;;;11.70;55.59;100307.41;6310587;22;20382;-73
2021/04/26 10:45:13;;;;;;;16.75;7.93;;;;;;;11.78;55.72;100301.13;6311674;22;20014;-73
2021/04/26 10:47:40;;;;;;;16.50;7.97;;;;;;;11.91;55.53;100302.31;6312167;22;20370;-73
2021/04/26 10:50:05;;;;;;;16.00;8.68;;;;;;;11.96;55.82;100299.44;6310046;22;20216;-72
2021/04/26 10:52:31;;;;;;;13.85;8.38;;;;;;;12.09;55.49;100298.63;6311222;22;20096;-72
2021/04/26 10:54:59;;;;;;;16.95;7.82;;;;;;;12.17;55.39;100289.50;6312458;22;20008;-73
2021/04/26 10:57:45;;;;;;;14.95;8.65;;;;;;;12.27;54.82;100286.53;6309967;22;20007;-77
2021/04/26 11:00:23;;;;;;;17.60;7.35;;;;;;;12.41;54.09;100288.47;6259194;22;20336;-73
2021/04/26 11:02:52;;;;;;;11.73;8.00;;;;;;;12.42;53.83;100279.78;6310274;22;20007;-73
2021/04/26 11:05:25;;;;;;;13.40;7.32;;;;;;;12.49;52.97;100279.38;6259052;22;20031;-73
2021/04/26 11:07:57;;;;;;;14.48;7.38;;;;;;;12.55;52.69;100278.13;6310310;22;20034;-72
2021/04/26 11:10:28;;;;;;;13.50;7.47;;;;;;;12.64;53.35;100270.66;6259644;22;20004;-73
2021/04/26 11:12:55;;;;;;;13.77;7.90;;;;;;;12.73;52.94;100268.81;6283646;22;20007;-73
2021/04/26 11:15:21;;;;;;;10.23;7.57;;;;;;;12.89;53.73;100272.03;6284938;22;20014;-72
2021/04/26 11:17:47;;;;;;;11.80;7.50;;;;;;;12.98;53.60;100263.75;6259571;22;20011;-73